METAR Data
IDs: Format: Raw Decoded Include TAF

Data at: 1530 UTC 27 Nov 2021

LZTT 271500Z 22007KT 9999 BKN030 04/M01 Q0995 NOSIG